Ana Sayfa
METAR-TAF:

METAR-TAF

Havaalanları :

Watertown, Güney Dakota, Amerika Birleşik Devletleri

Enlem: 44-54-17N, Boylam: 097-08-58W, yükseklik: 532 m

Güncel hava durumu gözlemi

Rapor saat 09:53 UTC de 14 dakika önce yapıldı.
Rüzgar kuzey/kuzeydoğudan 10 kt
Sıcaklık 20°C
Nem 88%
Basınç 1008 hPa
Görüş mesafesi: 16.1 km
Açık gökyüzü

METAR: KATY 250953Z AUTO 02010KT 10SM CLR 20/18 A2977 RMK AO2 SLP068 T02000183

Saat: 05:07 (10:07 UTC)

Tahmin

Rapor saat 05:20 UTC de 4 saat ve 47 dakika önce yapıldı.
Ayın 25'si saat 06 UTC'den ayın 26'si saat 06 UTC'ye kadar geçerli Tahmin
Rüzgar kuzeybatıdan 7 kt
Görüş mesafesi: 10 km
25000 ft yükseklikte parçalı bulutlu

TAF: KATY 250520Z 2506/2606 32007KT P6SM SCT250

4.000'den fazla havaalanı için hava durumu gözlemleri ve tahminleri (METAR ve TAF raporları).

Kullanılabilir istasyonlar harita üzerinde sarı ve kırmızı noktalarla gösterilir.

İstasyonun adını görmek için fareyi noktanın üzerinde gezdirin.

Sonrasında hava gözlem ve tahminlerini görmek için tıklayın.

Haritayı değiştirmek için: yaklaştırmak için siyah artı işaretli yeşil düğmeye ve uzaklaştırmak için de eksi işaretli düğmeye hızla tıklayın; bitişik haritalar için yeşil okları kullanın.


METAR-TAF: